• Join FlightAware (Why Join?)
  • Login
  • US Flag 
01:43AM EDT


 

Airport Tracker/Info


-or-


 

Live Flight TrackerFlight Track Log ✈ DAL268 ✈ 12-Aug-2013 ✈ KJFK - LLBG / TLV

Flight Track Log - Related Links

Times and Time Zones

All times are in EDT time to prevent confusion due to time zone crossing. See the DAL268 flight status page for this flight to view local times or setup timezone preferences in your user account.

Time Position Orientation Groundspeed Altitude Reporting Facility
EDT Latitude Longitude Course Direction KTS MPH feet Rate Location/Type
01:36AM 40.6370 -73.7740 180° South 125 144  Level FlightAware
01:37AM 40.6240 -73.7840 210° Southwest 176 203 200 1,260 Climbing FlightAware
01:37AM 40.6130 -73.7930 212° Southwest 174 200 800 1,800 Climbing FlightAware
01:37AM 40.5990 -73.8040 211° Southwest 181 208 1,300 1,260 Climbing FlightAware
01:38AM 40.5890 -73.8110 208° Southwest 193 222 1,500 1,080 Climbing FlightAware
01:38AM 40.5720 -73.8250 212° Southwest 219 252 1,900 960 Climbing FlightAware
01:38AM 40.5570 -73.8360 209° Southwest 228 262 2,100 960 Climbing FlightAware
01:38AM 40.5480 -73.8390 194° South 234 269 2,300 960 Climbing FlightAware
01:39AM 40.5370 -73.8410 188° South 243 280 2,400 1,080 Climbing FlightAware
01:39AM 40.5110 -73.8330 167° South 261 300 2,900 1,380 Climbing FlightAware
01:39AM 40.4940 -73.8190 148° Southeast 270 311 3,300 1,740 Climbing FlightAware
01:39AM 40.4870 -73.8100 136° Southeast 274 315 3,600 1,800 Climbing FlightAware
01:40AM 40.4790 -73.7950 125° Southeast 281 323 3,900 1,380 Climbing FlightAware
01:40AM 40.4730 -73.7697 107° East 290 334 4,200 1,320 Climbing FlightAware ADS-B
01:40AM 40.4724 -73.7626 96° East 292 336 4,300 1,800 Climbing FlightAware ADS-B
01:40AM 40.4727 -73.7518 88° East 294 338 4,500 1,800 Climbing FlightAware ADS-B
01:40AM 40.4734 -73.7447 83° East 295 339 4,600 1,500 Climbing FlightAware ADS-B
01:40AM 40.4746 -73.7394 73° East 294 338 4,700 2,160 Climbing FlightAware ADS-B
01:40AM 40.4779 -73.7277 70° East 293 337 5,000 2,460 Climbing FlightAware ADS-B
01:40AM 40.4810 -73.7198 63° Northeast 292 336 5,200 1,980 Climbing FlightAware ADS-B
01:40AM 40.4847 -73.7123 57° Northeast 293 337 5,300 1,800 Climbing FlightAware ADS-B
01:40AM 40.4902 -73.7041 49° Northeast 291 335 5,500 1,620 Climbing FlightAware ADS-B
01:40AM 40.4951 -73.6980 43° Northeast 292 336 5,600 1,320 Climbing FlightAware ADS-B
01:41AM 40.4986 -73.6947 36° Northeast 293 337 5,700 1,680 Climbing FlightAware ADS-B
01:41AM 40.5020 -73.6917 34° Northeast 293 337 5,800 1,980 Climbing FlightAware ADS-B
01:41AM 40.5056 -73.6888 31° Northeast 293 337 5,900 1,980 Climbing FlightAware ADS-B
01:41AM 40.5101 -73.6855 29° Northeast 294 338 6,000 1,980 Climbing FlightAware ADS-B
01:41AM 40.5179 -73.6811 23° Northeast 295 339 6,200 2,400 Climbing FlightAware ADS-B
01:41AM 40.5378 -73.6699 23° Northeast 294 338 6,900 2,280 Climbing FlightAware ADS-B
01:41AM 40.5567 -73.6592 23° Northeast 299 344 7,400 1,800 Climbing FlightAware ADS-B
01:42AM 40.5760 -73.6477 24° Northeast 308 354 7,800 1,980 Climbing FlightAware ADS-B
01:42AM 40.5957 -73.6357 25° Northeast 307 353 8,400 2,100 Climbing FlightAware ADS-B
01:42AM 40.6160 -73.6224 26° Northeast 314 361 8,900 1,800 Climbing FlightAware ADS-B
01:42AM 40.6382 -73.6080 26° Northeast 319 367 9,400 1,800 Climbing FlightAware ADS-B
01:43AM 40.6596 -73.5946 25° Northeast 321 369 9,900 1,500 Climbing FlightAware ADS-B
01:43AM 40.7024 -73.5682 25° Northeast 337 388 10,600 1,020 Climbing FlightAware ADS-B
01:44AM 40.7613 -73.5319 25° Northeast 378 435 11,100 780 Climbing FlightAware ADS-B
01:44AM 40.8180 -73.4960 26° Northeast 407 468 11,600 960 Climbing FlightAware
01:45AM 40.8539 -73.4741 25° Northeast 386 444 12,000 1,080 Climbing FlightAware ADS-B
01:45AM 40.9249 -73.4290 26° Northeast 451 519 12,700 1,380 Climbing FlightAware ADS-B
01:46AM 40.9826 -73.3937 25° Northeast 459 528 13,600 2,220 Climbing FlightAware ADS-B
01:46AM 41.0335 -73.3635 24° Northeast 463 533 14,800 1,920 Climbing FlightAware ADS-B
01:47AM 41.1320 -73.2420 43° Northeast 492 566 16,500 1,740 Climbing FlightAware
01:48AM 41.1750 -73.1520 58° Northeast 498 573 17,700 1,800 Climbing FlightAware
01:49AM 41.2190 -73.0610 57° Northeast 507 583 18,700 1,500 Climbing FlightAware
01:49AM 41.2620 -72.9770 56° Northeast 516 594 19,400 1,500 Climbing FlightAware
01:50AM 41.3150 -72.8830 53° Northeast 524 603 20,400 1,560 Climbing FlightAware
01:50AM 41.3690 -72.7900 52° Northeast 531 611 21,300 1,320 Climbing FlightAware
01:51AM 41.4240 -72.6960 52° Northeast 538 619 22,100 1,260 Climbing FlightAware
01:51AM 41.4240 -72.6960 52° Northeast 543 625 22,800 600 Climbing FlightAware
01:52AM 41.4730 -72.6060 54° Northeast 543 625 22,800  Level FlightAware
01:53AM 41.5180 -72.5230 54° Northeast 543 625 22,800 1,680 Level FlightAware
01:53AM 41.6370 -72.3070 54° Northeast 569 655 24,800 2,220 Climbing FlightAware
01:54AM 41.6950 -72.2010 54° Northeast 576 663 25,400 1,080 Climbing FlightAware
01:54AM 41.7480 -72.1030 54° Northeast 580 667 26,100 1,320 Climbing FlightAware
01:55AM 41.8000 -72.0070 54° Northeast 579 666 26,900 1,500 Climbing FlightAware
01:56AM 41.8550 -71.9060 54° Northeast 575 662 27,800 1,500 Climbing FlightAware
01:56AM 41.9120 -71.8020 54° Northeast 572 658 28,700 1,380 Climbing FlightAware
01:57AM 41.9680 -71.6990 54° Northeast 572 658 29,500 1,200 Climbing FlightAware
01:57AM 42.0260 -71.5890 55° Northeast 573 659 30,200 1,140 Climbing FlightAware
01:58AM 42.0800 -71.4880 54° Northeast 573 659 30,900 1,020 Climbing FlightAware
01:59AM 42.1530 -71.3520 54° Northeast 573 659 31,700 900 Climbing FlightAware
01:59AM 42.2010 -71.2620 54° Northeast 575 662 32,100 840 Climbing FlightAware
02:00AM 42.2640 -71.1420 55° Northeast 576 663 32,700 660 Climbing FlightAware
02:01AM 42.3200 -71.0360 54° Northeast 579 666 33,000 240 Climbing FlightAware
02:01AM 42.3700 -70.9390 55° Northeast 578 665 33,000  Level FlightAware
02:02AM 42.4260 -70.8330 54° Northeast 577 664 33,000  Level FlightAware
02:02AM 42.4850 -70.7200 55° Northeast 578 665 33,000  Level FlightAware
02:03AM 42.5340 -70.6250 55° Northeast 579 666 33,000  Level FlightAware
02:03AM 42.5890 -70.5210 54° Northeast 579 666 33,000  Level FlightAware
02:04AM 42.6460 -70.4110 55° Northeast 578 665 33,000  Level FlightAware
02:05AM 42.7000 -70.3040 55° Northeast 578 665 33,000  Level FlightAware
02:05AM 42.7490 -70.2090 55° Northeast 578 665 33,000  Level FlightAware
02:06AM 42.8040 -70.1010 55° Northeast 578 665 33,000  Level FlightAware
02:06AM 42.8560 -69.9990 55° Northeast 577 664 33,000  Level FlightAware
02:07AM 42.9100 -69.8920 55° Northeast 571 657 33,000  Level FlightAware
02:08AM 42.9740 -69.7670 55° Northeast 574 661 33,000  Level FlightAware
02:09AM 43.0500 -69.6140 56° Northeast 573 659 33,000  Level FlightAware
02:09AM 43.0990 -69.5180 55° Northeast 573 659 33,000  Level FlightAware
02:10AM 43.1810 -69.3560 55° Northeast 571 657 33,000  Level FlightAware
02:11AM 43.2520 -69.2130 56° Northeast 573 659 33,000  Level FlightAware
02:12AM 43.3160 -69.0840 56° Northeast 573 659 33,000  Level FlightAware
02:12AM 43.3710 -68.9700 56° Northeast 573 659 33,000  Level FlightAware
02:13AM 43.4240 -68.8660 55° Northeast 573 659 33,000  Level FlightAware
02:13AM 43.4700 -68.7740 55° Northeast 573 659 33,000  Level FlightAware
02:14AM 43.5180 -68.6800 55° Northeast 573 659 33,000  Level FlightAware
02:15AM 43.5660 -68.5860 55° Northeast 573 659 33,000  Level FlightAware
02:16AM 43.6990 -68.2940 58° Northeast 578 665 33,000  Level FlightAware
02:16AM 43.7450 -68.1960 57° Northeast 578 665 33,000  Level FlightAware
02:17AM 43.7870 -68.1060 57° Northeast 578 665 33,000  Level FlightAware
02:18AM 43.8510 -67.9760 56° Northeast 574 661 33,000  Level FlightAware
02:18AM 43.9040 -67.8620 57° Northeast 575 662 33,000  Level FlightAware
02:19AM 43.9560 -67.7530 56° Northeast 573 659 33,000  Level FlightAware
02:19AM 44.0060 -67.6480 56° Northeast 571 657 33,000  Level FlightAware
02:20AM 44.0580 -67.5360 57° Northeast 570 656 33,000  Level FlightAware
02:20AM 44.1070 -67.4310 57° Northeast 570 656 33,000  Level FlightAware
02:21AM 44.1590 -67.3160 58° Northeast 570 656 33,000  Level FlightAware
02:22AM 44.2080 -67.2110 57° Northeast 574 661 33,000  Level FlightAware
02:22AM 44.2590 -67.1020 57° Northeast 575 662 33,000  Level FlightAware
02:23AM 44.3090 -66.9920 58° Northeast 576 663 33,000  Level FlightAware
02:23AM 44.3600 -66.8830 57° Northeast 575 662 33,000  Level FlightAware
02:24AM 44.4090 -66.7730 58° Northeast 575 662 33,000  Level FlightAware
02:25AM 44.4600 -66.6630 57° Northeast 576 663 33,000  Level FlightAware
02:25AM 44.5090 -66.5530 58° Northeast 576 663 33,000  Level FlightAware
02:26AM 44.5590 -66.4420 58° Northeast 576 663 33,000  Level FlightAware
02:26AM 44.6080 -66.3350 57° Northeast 576 663 33,000  Level FlightAware
02:27AM 44.6660 -66.2050 58° Northeast 575 662 33,000  Level FlightAware
02:28AM 44.7210 -66.0780 59° Northeast 575 662 33,000  Level FlightAware
02:28AM 44.7720 -65.9680 57° Northeast 574 661 33,000  Level FlightAware
02:29AM 44.8140 -65.8690 59° Northeast 574 661 33,000  Level FlightAware
02:29AM 44.8620 -65.7610 58° Northeast 569 655 33,000  Level FlightAware
02:30AM 44.9190 -65.6310 58° Northeast 569 655 33,000  Level FlightAware
02:30AM 44.9610 -65.5360 58° Northeast 570 656 33,000  Level FlightAware
02:31AM 45.0080 -65.4270 59° Northeast 570 656 33,000  Level FlightAware
02:32AM 45.0580 -65.3120 58° Northeast 570 656 33,000  Level FlightAware
02:32AM 45.1060 -65.2030 58° Northeast 571 657 33,000  Level FlightAware
02:33AM 45.1690 -65.0550 59° Northeast 577 664 33,000  Level FlightAware
02:34AM 45.2390 -64.8900 59° Northeast 577 664 33,000  Level FlightAware
02:35AM 45.3030 -64.7380 59° Northeast 577 664 33,000  Level FlightAware
02:35AM 45.3460 -64.6380 59° Northeast 577 664 33,000  Level FlightAware
02:36AM 45.4170 -64.4690 59° Northeast 573 659 33,000  Level FlightAware
02:37AM 45.4590 -64.3700 59° Northeast 573 659 33,000  Level FlightAware
02:37AM 45.5010 -64.2710 59° Northeast 573 659 33,000  Level FlightAware
02:38AM 45.5440 -64.1690 59° Northeast 573 659 33,000  Level FlightAware
02:39AM 45.4420 -64.4090 239° Southwest 571 657 33,000  Level FlightAware
02:39AM 45.4840 -64.3100 59° Northeast 571 657 33,000  Level FlightAware
02:40AM 45.5260 -64.2110 59° Northeast 571 657 33,000  Level FlightAware
02:40AM 45.5670 -64.1130 59° Northeast 571 657 33,000  Level FlightAware
02:41AM 45.6090 -64.0130 59° Northeast 571 657 33,000  Level FlightAware
02:42AM 45.6500 -63.9140 59° Northeast 571 657 33,000  Level FlightAware
02:42AM 45.6920 -63.8150 59° Northeast 571 657 33,000  Level FlightAware
02:43AM 45.7340 -63.7160 59° Northeast 571 657 33,000  Level FlightAware
02:43AM 45.7750 -63.6170 59° Northeast 571 657 33,000  Level FlightAware
02:44AM 45.8170 -63.5170 59° Northeast 571 657 33,000  Level FlightAware
02:45AM 45.8580 -63.4180 59° Northeast 571 657 33,000  Level FlightAware
02:45AM 46.1500 -62.6660 61° Northeast 561 646 33,000  Level FlightAware
02:46AM 46.1970 -62.5460 60° Northeast 561 646 33,000  Level FlightAware
02:46AM 46.2430 -62.4290 60° Northeast 560 644 33,000  Level FlightAware
02:47AM 46.2840 -62.3240 61° Northeast 560 644 33,000  Level FlightAware
02:47AM 46.3250 -62.2170 61° Northeast 560 644 33,000  Level FlightAware
02:48AM 46.3720 -62.0960 61° Northeast 560 644 33,000  Level FlightAware
02:49AM 46.4180 -61.9740 61° Northeast 560 644 33,000  Level FlightAware
02:49AM 46.4600 -61.8660 61° Northeast 559 643 33,000  Level FlightAware
02:50AM 46.5050 -61.7480 61° Northeast 558 642 33,000  Level FlightAware
02:50AM 46.5500 -61.6270 62° Northeast 558 642 33,000  Level FlightAware
02:51AM 46.5870 -61.5280 61° Northeast 558 642 33,000  Level FlightAware
02:52AM 46.6350 -61.4030 61° Northeast 557 641 33,000  Level FlightAware
02:52AM 46.6790 -61.2850 61° Northeast 556 640 33,000  Level FlightAware
02:53AM 46.7230 -61.1670 61° Northeast 555 639 33,000  Level FlightAware
02:53AM 46.7620 -61.0610 62° Northeast 556 640 33,000  Level FlightAware
02:54AM 46.8060 -60.9430 61° Northeast 557 641 33,000  Level FlightAware
02:54AM 46.8470 -60.8330 61° Northeast 557 641 33,000  Level FlightAware
02:55AM 46.8920 -60.7100 62° Northeast 557 641 33,000  Level FlightAware
02:56AM 46.9370 -60.5870 62° Northeast 559 643 33,000  Level FlightAware
02:56AM 46.9870 -60.4500 62° Northeast 560 644 33,000  Level FlightAware
02:57AM 47.0270 -60.3360 63° Northeast 560 644 33,000  Level FlightAware
02:58AM 47.0670 -60.2260 62° Northeast 560 644 33,000  Level FlightAware
02:58AM 47.1130 -60.0980 62° Northeast 560 644 33,000  Level FlightAware
02:59AM 47.1560 -59.9770 62° Northeast 560 644 33,000  Level FlightAware
02:59AM 47.2020 -59.8480 62° Northeast 562 647 33,000  Level FlightAware
03:00AM 47.2490 -59.7160 62° Northeast 561 646 33,000  Level FlightAware
03:01AM 47.2830 -59.6220 62° Northeast 561 646 33,000  Level FlightAware
03:01AM 47.3240 -59.5030 63° Northeast 562 647 33,000  Level FlightAware
03:02AM 47.3620 -59.3960 62° Northeast 562 647 33,000  Level FlightAware
03:03AM 47.4260 -59.2100 63° Northeast 562 647 33,000  Level FlightAware
03:03AM 47.4660 -59.0890 64° Northeast 563 648 33,000  Level FlightAware
03:04AM 47.5200 -58.9310 63° Northeast 563 648 33,000  Level FlightAware
03:05AM 47.5740 -58.7740 63° Northeast 562 647 33,000  Level FlightAware
03:05AM 47.6150 -58.6570 62° Northeast 561 646 33,000  Level FlightAware
03:06AM 47.6600 -58.5200 64° Northeast 560 644 33,000  Level FlightAware
03:07AM 47.7040 -58.3890 63° Northeast 561 646 33,000  Level FlightAware
03:07AM 47.7470 -58.2610 63° Northeast 562 647 33,000  Level FlightAware
03:08AM 47.7870 -58.1400 64° Northeast 561 646 33,000  Level FlightAware
03:08AM 47.8220 -58.0360 63° Northeast 561 646 33,000  Level FlightAware
03:09AM 47.8670 -57.8980 64° Northeast 560 644 33,000  Level FlightAware
03:09AM 47.9070 -57.7770 64° Northeast 560 644 33,000  Level FlightAware
03:10AM 47.9470 -57.6550 64° Northeast 560 644 33,000  Level FlightAware
03:11AM 47.9800 -57.5510 65° Northeast 560 644 33,000  Level FlightAware
03:11AM 48.0200 -57.4260 64° Northeast 560 644 33,000  Level FlightAware
03:12AM 48.0650 -57.2860 64° Northeast 561 646 33,000  Level FlightAware
03:12AM 48.1020 -57.1660 65° Northeast 562 647 33,000  Level FlightAware
03:13AM 48.1450 -57.0240 66° East 564 649 33,000  Level FlightAware
03:14AM 48.1830 -56.9000 65° Northeast 564 649 33,000  Level FlightAware
03:14AM 48.2210 -56.7760 65° Northeast 565 650 33,000  Level FlightAware
03:15AM 48.2560 -56.6580 66° East 565 650 33,000  Level FlightAware
03:15AM 48.2950 -56.5260 66° East 566 651 33,000  Level FlightAware
03:16AM 48.3340 -56.3960 66° East 567 652 33,000  Level FlightAware
03:17AM 48.3710 -56.2710 66° East 566 651 33,000  Level FlightAware
03:17AM 48.4090 -56.1480 65° Northeast 568 654 33,000  Level FlightAware
03:18AM 48.4450 -56.0220 67° East 569 655 33,000  Level FlightAware
03:18AM 48.4830 -55.8910 66° East 570 656 33,000  Level FlightAware
03:19AM 48.5200 -55.7670 66° East 571 657 33,000  Level FlightAware
03:19AM 48.5560 -55.6400 67° East 571 657 33,000  Level FlightAware
03:20AM 48.5920 -55.5160 66° East 571 657 33,000  Level FlightAware
03:21AM 48.6300 -55.3840 66° East 570 656 33,000  Level FlightAware
03:21AM 48.6650 -55.2600 67° East 571 657 33,000  Level FlightAware
03:22AM 48.7020 -55.1280 67° East 570 656 33,000  Level FlightAware
03:22AM 48.7380 -55.0000 67° East 570 656 33,000  Level FlightAware
03:23AM 48.7750 -54.8710 66° East 567 652 33,000  Level FlightAware
03:24AM 48.8100 -54.7440 67° East 567 652 33,000  Level FlightAware
03:24AM 48.8460 -54.6150 67° East 567 652 33,000  Level FlightAware
03:25AM 48.8800 -54.4870 68° East 566 651 33,000  Level FlightAware
03:25AM 48.9160 -54.3550 67° East 564 649 33,000  Level FlightAware
03:26AM 48.9510 -54.2310 67° East 563 648 33,000  Level FlightAware
03:26AM 48.9850 -54.1060 67° East 563 648 33,000  Level FlightAware
03:27AM 49.0190 -53.9780 68° East 563 648 33,000  Level FlightAware
03:28AM 49.0550 -53.8420 68° East 564 649 33,000  Level FlightAware
03:28AM 49.0890 -53.7170 67° East 563 648 33,000  Level FlightAware
03:29AM 49.1240 -53.5850 68° East 563 648 33,000  Level FlightAware
03:29AM 49.1580 -53.4600 67° East 563 648 33,000  Level FlightAware
03:30AM 49.1910 -53.3300 69° East 562 647 33,000  Level FlightAware
03:31AM 49.2250 -53.2020 68° East 560 644 33,000  Level FlightAware
03:31AM 49.2570 -53.0760 69° East 560 644 33,000  Level FlightAware
03:32AM 49.2910 -52.9480 68° East 559 643 33,000  Level FlightAware
03:32AM 49.3260 -52.8080 69° East 559 643 33,000  Level FlightAware
03:33AM 49.3570 -52.6860 69° East 558 642 33,000  Level FlightAware
03:33AM 49.3870 -52.5690 68° East 557 641 33,000  Level FlightAware
03:34AM 49.4200 -52.4360 69° East 556 640 33,000  Level FlightAware
03:35AM 49.4530 -52.3040 69° East 555 639 33,000  Level FlightAware
03:35AM 49.4850 -52.1750 69° East 555 639 33,000  Level FlightAware
03:36AM 49.5180 -52.0460 68° East 556 640 33,000  Level FlightAware
03:36AM 49.5500 -51.9170 69° East 555 639 33,000  Level FlightAware
03:37AM 49.5830 -51.7800 70° East 556 640 33,000  Level FlightAware
03:38AM 49.6160 -51.6430 70° East 557 641 33,000  Level FlightAware
03:38AM 49.6450 -51.5260 69° East 557 641 33,000  Level FlightAware
03:39AM 49.6740 -51.4120 69° East 557 641 33,000  Level FlightAware
03:39AM 49.7020 -51.2980 69° East 557 641 33,000  Level FlightAware
03:40AM 49.7300 -51.1840 69° East 557 641 33,000  Level FlightAware
03:41AM 49.7580 -51.0700 69° East 557 641 33,000  Level FlightAware
03:41AM 49.7870 -50.9560 68° East 557 641 33,000  Level FlightAware
03:42AM 49.8150 -50.8420 69° East 557 641 33,000  Level FlightAware
03:43AM 49.8520 -50.6900 69° East 557 641 33,000  Level FlightAware
03:43AM 49.8810 -50.5760 68° East 557 641 33,000  Level FlightAware
03:44AM 49.9090 -50.4620 69° East 557 641 33,000  Level FlightAware
03:44AM 49.9370 -50.3470 69° East 557 641 33,000  Level FlightAware
03:45AM 49.9650 -50.2330 69° East 557 641 33,000  Level FlightAware
03:46AM 49.9940 -50.1180 69° East 557 641 33,000  Level FlightAware
03:46AM 50.0220 -50.0040 69° East 557 641 33,000  Level FlightAware
03:47AM 50.0500 -49.8890 69° East 557 641 33,000  Level FlightAware
03:47AM 50.0800 -49.7680 69° East 557 641 33,000  Level FlightAware
03:49AM 50.1833 -49.1500 69° East 560 644 33,000  Level Gander Center
03:50AM 50.2333 -48.9000 73° East 540 621 33,000  Level Gander Center
03:51AM 50.2833 -48.7000 69° East 560 644 33,000  Level Gander Center
03:52AM 50.3500 -48.4500 67° East 560 644 33,000  Level Gander Center
03:53AM 50.4000 -48.2500 69° East 550 633 33,000  Level Gander Center
03:54AM 50.4500 -48.0333 70° East 550 633 33,000  Level Gander Center
03:56AM 50.5479 -47.6119 70° East  Level FlightAware Approximate
04:03AM 50.8955 -46.0443 70° East  Level FlightAware Approximate
04:04AM 50.9434 -45.8184 71° East  Level FlightAware Approximate
04:05AM 50.9909 -45.5922 71° East  Level FlightAware Approximate
04:06AM 51.0379 -45.3654 72° East  Level FlightAware Approximate
04:07AM 51.0845 -45.1382 72° East  Level FlightAware Approximate
04:08AM 51.1307 -44.9105 72° East  Level FlightAware Approximate
04:09AM 51.1764 -44.6824 72° East  Level FlightAware Approximate
04:10AM 51.2217 -44.4538 72° East  Level FlightAware Approximate
04:11AM 51.2665 -44.2248 73° East  Level FlightAware Approximate
04:12AM 51.3109 -43.9953 73° East  Level FlightAware Approximate
04:13AM 51.3549 -43.7654 73° East  Level FlightAware Approximate
04:14AM 51.3984 -43.5351 73° East  Level FlightAware Approximate
04:15AM 51.4414 -43.3043 73° East  Level FlightAware Approximate
04:16AM 51.4840 -43.0731 73° East  Level FlightAware Approximate
04:17AM 51.5261 -42.8414 74° East  Level FlightAware Approximate
04:18AM 51.5678 -42.6094 74° East  Level FlightAware Approximate
04:19AM 51.6090 -42.3769 74° East  Level FlightAware Approximate
04:20AM 51.6497 -42.1439 74° East  Level FlightAware Approximate
04:21AM 51.6900 -41.9106 74° East  Level FlightAware Approximate
04:22AM 51.7298 -41.6769 75° East  Level FlightAware Approximate
04:23AM 51.7692 -41.4427 75° East  Level FlightAware Approximate
04:24AM 51.8081 -41.2081 75° East  Level FlightAware Approximate
04:25AM 51.8465 -40.9732 75° East  Level FlightAware Approximate
04:26AM 51.8845 -40.7378 75° East  Level FlightAware Approximate
04:27AM 51.9220 -40.5020 75° East  Level FlightAware Approximate
04:28AM 51.9590 -40.2659 76° East  Level FlightAware Approximate
04:29AM 51.9955 -40.0294 76° East  Level FlightAware Approximate
04:30AM 52.0496 -39.8017 68° East  Level FlightAware Approximate
04:31AM 52.1057 -39.5752 68° East  Level FlightAware Approximate
04:32AM 52.1614 -39.3481 68° East  Level FlightAware Approximate
04:33AM 52.2166 -39.1204 68° East  Level FlightAware Approximate
04:34AM 52.2714 -38.8922 68° East  Level FlightAware Approximate
04:35AM 52.3258 -38.6634 69° East  Level FlightAware Approximate
04:36AM 52.3797 -38.4340 69° East  Level FlightAware Approximate
04:37AM 52.4332 -38.2041 69° East  Level FlightAware Approximate
04:38AM 52.4862 -37.9736 69° East  Level FlightAware Approximate
04:39AM 52.5388 -37.7426 69° East  Level FlightAware Approximate
04:40AM 52.5909 -37.5110 70° East  Level FlightAware Approximate
04:41AM 52.6426 -37.2789 70° East  Level FlightAware Approximate
04:42AM 52.6938 -37.0462 70° East  Level FlightAware Approximate
04:43AM 52.7446 -36.8130 70° East  Level FlightAware Approximate
04:44AM 52.7949 -36.5792 70° East  Level FlightAware Approximate
04:45AM 52.8447 -36.3449 71° East  Level FlightAware Approximate
04:46AM 52.8941 -36.1101 71° East  Level FlightAware Approximate
04:47AM 52.9430 -35.8747 71° East  Level FlightAware Approximate
04:48AM 52.9915 -35.6388 71° East  Level FlightAware Approximate
04:49AM 53.0395 -35.4024 71° East  Level FlightAware Approximate
04:50AM 53.0870 -35.1654 71° East  Level FlightAware Approximate
04:51AM 53.1331 -34.9275 72° East  Level FlightAware Approximate
04:52AM 53.1785 -34.6888 72° East  Level FlightAware Approximate
04:53AM 53.2233 -34.4497 73° East  Level FlightAware Approximate
04:54AM 53.2677 -34.2100 73° East  Level FlightAware Approximate
04:55AM 53.3116 -33.9699 73° East  Level FlightAware Approximate
04:56AM 53.3563 -33.7299 72° East  Level FlightAware Approximate
04:57AM 53.4018 -33.4901 72° East  Level FlightAware Approximate
04:58AM 53.4468 -33.2498 72° East  Level FlightAware Approximate
04:59AM 53.4914 -33.0090 73° East  Level FlightAware Approximate
05:00AM 53.5354 -32.7676 73° East  Level FlightAware Approximate
05:01AM 53.5790 -32.5258 73° East  Level FlightAware Approximate
05:02AM 53.6221 -32.2835 73° East  Level FlightAware Approximate
05:03AM 53.6646 -32.0406 73° East  Level FlightAware Approximate
05:04AM 53.7067 -31.7973 74° East  Level FlightAware Approximate
05:05AM 53.7483 -31.5536 74° East  Level FlightAware Approximate
05:06AM 53.7894 -31.3093 74° East  Level FlightAware Approximate
05:07AM 53.8301 -31.0645 74° East  Level FlightAware Approximate
05:08AM 53.8702 -30.8193 74° East  Level FlightAware Approximate
05:09AM 53.9098 -30.5736 75° East  Level FlightAware Approximate
05:10AM 53.9489 -30.3275 75° East  Level FlightAware Approximate
05:11AM 53.9875 -30.0809 75° East  Level FlightAware Approximate
05:12AM 54.0236 -29.8339 76° East  Level FlightAware Approximate
05:13AM 54.0584 -29.5862 76° East  Level FlightAware Approximate
05:14AM 54.0927 -29.3380 77° East  Level FlightAware Approximate
05:15AM 54.1264 -29.0895 77° East  Level FlightAware Approximate
05:16AM 54.1597 -28.8405 77° East  Level FlightAware Approximate
05:17AM 54.1924 -28.5912 77° East  Level FlightAware Approximate
05:18AM 54.2246 -28.3414 77° East  Level FlightAware Approximate
05:19AM 54.2563 -28.0913 78° East  Level FlightAware Approximate
05:20AM 54.2875 -27.8407 78° East  Level FlightAware Approximate
05:21AM 54.3182 -27.5898 78° East  Level FlightAware Approximate
05:22AM 54.3483 -27.3386 78° East  Level FlightAware Approximate
05:23AM 54.3780 -27.0869 79° East  Level FlightAware Approximate
05:24AM 54.4072 -26.8350 79° East  Level FlightAware Approximate
05:25AM 54.4359 -26.5827 79° East  Level FlightAware Approximate
05:26AM 54.4640 -26.3300 79° East  Level FlightAware Approximate
05:27AM 54.4916 -26.0770 79° East  Level FlightAware Approximate
05:28AM 54.5187 -25.8236 79° East  Level FlightAware Approximate
05:29AM 54.5453 -25.5700 80° East  Level FlightAware Approximate
05:30AM 54.5713 -25.3159 80° East  Level FlightAware Approximate
05:31AM 54.5968 -25.0616 80° East  Level FlightAware Approximate
05:32AM 54.6217 -24.8070 80° East  Level FlightAware Approximate
05:33AM 54.6462 -24.5520 80° East  Level FlightAware Approximate
05:34AM 54.6702 -24.2968 81° East  Level FlightAware Approximate
05:35AM 54.6942 -24.0414 81° East  Level FlightAware Approximate
05:36AM 54.7177 -23.7857 81° East  Level FlightAware Approximate
05:37AM 54.7406 -23.5298 81° East  Level FlightAware Approximate
05:38AM 54.7630 -23.2735 81° East  Level FlightAware Approximate
05:39AM 54.7849 -23.0170 81° East  Level FlightAware Approximate
05:40AM 54.8062 -22.7602 82° East  Level FlightAware Approximate
05:41AM 54.8270 -22.5031 82° East  Level FlightAware Approximate
05:42AM 54.8472 -22.2457 82° East  Level FlightAware Approximate
05:43AM 54.8669 -21.9881 82° East  Level FlightAware Approximate
05:44AM 54.8860 -21.7303 83° East  Level FlightAware Approximate
05:45AM 54.9046 -21.4722 83° East  Level FlightAware Approximate
05:46AM 54.9227 -21.2139 83° East  Level FlightAware Approximate
05:47AM 54.9402 -20.9549 83° East  Level FlightAware Approximate
05:48AM 54.9572 -20.6957 83° East  Level FlightAware Approximate
05:49AM 54.9736 -20.4362 84° East  Level FlightAware Approximate
05:50AM 54.9895 -20.1766 84° East  Level FlightAware Approximate
05:51AM 54.9900 -19.9181 102° East  Level FlightAware Approximate
05:52AM 54.9584 -19.6630 102° East  Level FlightAware Approximate
05:53AM 54.9262 -19.4082 102° East  Level FlightAware Approximate
05:54AM 54.8935 -19.1538 102° East  Level FlightAware Approximate
05:55AM 54.8603 -18.8998 103° East  Level FlightAware Approximate
05:56AM 54.8265 -18.6463 103° East  Level FlightAware Approximate
05:57AM 54.7922 -18.3932 103° East  Level FlightAware Approximate
05:58AM 54.7574 -18.1405 103° East  Level FlightAware Approximate
05:59AM 54.7221 -17.8883 104° East  Level FlightAware Approximate
06:00AM 54.6862 -17.6364 104° East  Level FlightAware Approximate
06:01AM 54.6498 -17.3851 104° East  Level FlightAware Approximate
06:02AM 54.6129 -17.1342 104° East  Level FlightAware Approximate
06:03AM 54.5755 -16.8838 104° East  Level FlightAware Approximate
06:04AM 54.5376 -16.6338 105° East  Level FlightAware Approximate
06:05AM 54.4992 -16.3843 105° East  Level FlightAware Approximate
06:06AM 54.4602 -16.1352 105° East  Level FlightAware Approximate
06:07AM 54.4207 -15.8867 105° East  Level FlightAware Approximate
06:08AM 54.3807 -15.6381 105° East  Level FlightAware Approximate
06:08AM 54.7690 -13.9350 105° East 554 638 35,000  Level FlightAware
06:08AM 54.7240 -13.7650 115° Southeast 555 639 35,000  Level FlightAware
06:09AM 54.6760 -13.5790 114° Southeast 558 642 35,000  Level FlightAware
06:10AM 54.6390 -13.4370 114° Southeast 559 643 35,000  Level FlightAware
06:10AM 54.6010 -13.2900 114° Southeast 557 641 35,000  Level FlightAware
06:11AM 54.5630 -13.1520 115° Southeast 559 643 35,000  Level FlightAware
06:11AM 54.5290 -13.0220 114° Southeast 560 644 35,000  Level FlightAware
06:12AM 54.4860 -12.8600 115° Southeast 560 644 35,000  Level FlightAware
06:13AM 54.4480 -12.7220 115° Southeast 560 644 35,000  Level FlightAware
06:13AM 54.4090 -12.5750 114° Southeast 564 649 35,000  Level FlightAware
06:14AM 54.3650 -12.4140 115° Southeast 564 649 35,000  Level FlightAware
06:14AM 54.3260 -12.2720 115° Southeast 565 650 35,000  Level FlightAware
06:15AM 54.2820 -12.1150 116° Southeast 565 650 35,000  Level FlightAware
06:16AM 54.2480 -11.9940 116° Southeast 566 651 35,000  Level FlightAware
06:16AM 54.2010 -11.8250 115° Southeast 566 651 35,000  Level FlightAware
06:17AM 54.1680 -11.7080 116° Southeast 566 651 35,000  Level FlightAware
06:17AM 54.1270 -11.5640 116° Southeast 563 648 35,000  Level FlightAware
06:18AM 54.0870 -11.4240 116° Southeast 563 648 35,000  Level FlightAware
06:18AM 54.0480 -11.2880 116° Southeast 563 648 35,000  Level FlightAware
06:19AM 54.0020 -11.1280 116° Southeast 562 647 35,000  Level FlightAware
06:20AM 53.9670 -11.0050 116° Southeast 562 647 35,000  Level FlightAware
06:20AM 53.9260 -10.8660 117° Southeast 561 646 35,000  Level FlightAware
06:21AM 53.8840 -10.7240 117° Southeast 559 643 35,000  Level FlightAware
06:21AM 53.8370 -10.5670 117° Southeast 558 642 35,000  Level FlightAware
06:22AM 53.7970 -10.4300 116° Southeast 557 641 35,000  Level FlightAware
06:23AM 53.7550 -10.2940 118° Southeast 555 639 35,000  Level FlightAware
06:23AM 53.7150 -10.1610 117° Southeast 555 639 35,000  Level FlightAware
06:24AM 53.6680 -10.0020 116° Southeast 555 639 35,000  Level FlightAware
06:24AM 53.6260 -9.8630 117° Southeast 559 643 35,000  Level FlightAware
06:25AM 53.5910 -9.7510 118° Southeast 558 642 35,000  Level FlightAware
06:26AM 53.5500 -9.6160 117° Southeast 557 641 35,000  Level FlightAware
06:26AM 53.5010 -9.4600 118° Southeast 557 641 35,000  Level FlightAware
06:27AM 53.4660 -9.3490 118° Southeast 557 641 35,000  Level FlightAware
06:27AM 53.4230 -9.2110 118° Southeast 557 641 35,000  Level FlightAware
06:28AM 53.3820 -9.0810 118° Southeast 558 642 35,000  Level FlightAware
06:29AM 53.3390 -8.9440 118° Southeast 559 643 35,000  Level FlightAware
06:29AM 53.2960 -8.8110 118° Southeast 555 639 35,000  Level FlightAware
06:30AM 53.2520 -8.6730 118° Southeast 557 641 35,000  Level FlightAware
06:30AM 53.2075 -8.5345 118° Southeast 494 568 35,000  Level FlightAware UK
06:30AM 53.2100 -8.5440 118° Southeast 559 643 35,000  Level FlightAware
06:31AM 53.1704 -8.4203 118° Southeast 494 568 35,000  Level FlightAware UK
06:31AM 53.1660 -8.4060 118° Southeast 560 644 35,000  Level FlightAware
06:31AM 53.1230 -8.2760 119° Southeast 566 651 35,000  Level FlightAware
06:32AM 53.0780 -8.1390 119° Southeast 567 652 35,000  Level FlightAware
06:33AM 53.0350 -8.0090 119° Southeast 566 651 35,000  Level FlightAware
06:33AM 52.9900 -7.8720 119° Southeast 567 652 35,000  Level FlightAware
06:34AM 52.9443 -7.7323 119° Southeast 500 575 35,000  Level FlightAware UK
06:34AM 52.9460 -7.7390 119° Southeast 566 651 35,000  Level FlightAware
06:34AM 52.9063 -7.6183 119° Southeast 500 575 35,000  Level FlightAware UK
06:34AM 52.9020 -7.6070 119° Southeast 567 652 35,000  Level FlightAware
06:35AM 52.8570 -7.4740 119° Southeast 566 651 35,000  Level FlightAware
06:36AM 52.8110 -7.3380 119° Southeast 566 651 35,000  Level FlightAware
06:36AM 52.7680 -7.2100 119° Southeast 566 651 35,000  Level FlightAware
06:37AM 52.7100 -7.0450 120° Southeast 565 650 35,000  Level FlightAware
06:37AM 52.6678 -6.9168 120° Southeast 502 578 35,000  Level FlightAware UK
06:37AM 52.6670 -6.9180 120° Southeast 566 651 35,000  Level FlightAware
06:38AM 52.6280 -6.8050 120° Southeast 566 651 35,000  Level FlightAware
06:39AM 52.5760 -6.6530 119° Southeast 564 649 35,000  Level FlightAware
06:39AM 52.5278 -6.5148 119° Southeast 502 578 35,000  Level FlightAware UK
06:39AM 52.5260 -6.5120 119° Southeast 564 649 35,000  Level FlightAware
06:40AM 52.4880 -6.4050 120° Southeast 563 648 35,000  Level FlightAware
06:40AM 52.4390 -6.2640 120° Southeast 562 647 35,000  Level FlightAware
06:41AM 52.3920 -6.1320 120° Southeast 562 647 35,000  Level FlightAware
06:41AM 52.3490 -6.0150 121° Southeast 562 647 35,000  Level FlightAware
06:42AM 52.2990 -5.8720 120° Southeast 562 647 35,000  Level FlightAware
06:43AM 52.2520 -5.7440 121° Southeast 563 648 35,000  Level FlightAware
06:43AM 52.2090 -5.6240 120° Southeast 563 648 35,000  Level FlightAware
06:44AM 52.1620 -5.4960 121° Southeast 562 647 35,000  Level FlightAware
06:44AM 52.1174 -5.3712 121° Southeast 500 575 35,000  Level FlightAware UK
06:44AM 52.1140 -5.3650 121° Southeast 562 647 35,000  Level FlightAware
06:45AM 52.0670 -5.2350 120° Southeast 562 647 35,000  Level FlightAware
06:46AM 52.0240 -5.1200 121° Southeast 562 647 35,000  Level FlightAware
06:46AM 51.9936 -4.9930 121° Southeast 502 578 35,000  Level FlightAware UK
06:46AM 51.9900 -4.9710 121° Southeast 557 641 35,000  Level FlightAware
06:47AM 51.9780 -4.8400 98° East 554 638 35,000  Level FlightAware
06:47AM 51.9650 -4.6960 98° East 554 638 35,000  Level FlightAware
06:48AM 51.9530 -4.5480 97° East 553 636 35,000  Level FlightAware
06:48AM 51.9408 -4.4017 97° East 502 578 35,000  Level FlightAware UK
06:48AM 51.9410 -4.4040 97° East 554 638 35,000  Level FlightAware
06:49AM 51.9280 -4.2560 98° East 554 638 35,000 420 Level FlightAware
06:50AM 51.9140 -4.1129 99° East 557 641 35,500 1,020 Climbing FlightAware ADS-B
06:50AM 51.8998 -3.9649 99° East 556 640 36,200 1,140 Climbing FlightAware ADS-B
06:51AM 51.8871 -3.8382 99° East 555 639 36,800 780 Climbing FlightAware ADS-B
06:51AM 51.8752 -3.7121 99° East 498 573 37,000 300 Climbing FlightAware UK
06:51AM 51.8740 -3.6990 99° East 556 640 37,000  Level FlightAware
06:52AM 51.8600 -3.5510 99° East 555 639 37,000  Level FlightAware
06:53AM 51.8450 -3.4000 99° East 554 638 37,000  Level FlightAware
06:53AM 51.8300 -3.2490 99° East 553 636 37,000  Level FlightAware
06:53AM 51.8258 -3.2080 99° East 555 639 37,000  Level FlightAware ADS-B
06:54AM 51.8120 -3.0696 99° East 554 638 37,000  Level FlightAware ADS-B
06:54AM 51.7994 -2.9472 99° East 554 638 37,000  Level FlightAware ADS-B
06:55AM 51.7865 -2.8169 99° East 554 638 37,000  Level FlightAware ADS-B
06:55AM 51.7729 -2.6865 100° East 554 638 37,000  Level FlightAware ADS-B
06:56AM 51.7598 -2.5647 100° East 553 636 37,000  Level FlightAware ADS-B
06:57AM 51.7454 -2.4312 100° East 552 635 37,000  Level FlightAware ADS-B
06:57AM 51.7319 -2.3095 100° East 552 635 37,000  Level FlightAware ADS-B
06:58AM 51.7185 -2.1843 100° East 552 635 37,000  Level FlightAware ADS-B
06:58AM 51.7049 -2.0627 100° East 553 636 37,000  Level FlightAware ADS-B
06:59AM 51.6911 -1.9370 100° East 553 636 37,000  Level FlightAware ADS-B
06:59AM 51.6770 -1.8116 100° East 554 638 37,000  Level FlightAware ADS-B
07:00AM 51.6624 -1.6819 100° East 554 638 37,000  Level FlightAware ADS-B
07:00AM 51.6484 -1.5605 100° East 554 638 37,000  Level FlightAware ADS-B
07:01AM 51.6344 -1.4351 100° East 554 638 37,000  Level FlightAware ADS-B
07:01AM 51.6215 -1.3135 100° East 552 635 37,000  Level FlightAware ADS-B
07:02AM 51.6090 -1.1880 99° East 552 635 37,000  Level FlightAware ADS-B
07:02AM 51.5960 -1.0667 100° East 552 635 37,000  Level FlightAware ADS-B
07:03AM 51.5816 -0.9381 100° East 552 635 37,000  Level FlightAware ADS-B
07:03AM 51.5676 -0.8172 101° East 552 635 37,000  Level FlightAware ADS-B
07:04AM 51.5531 -0.6924 101° East 553 636 37,000  Level FlightAware ADS-B
07:04AM 51.5377 -0.5677 101° East 554 638 37,000  Level FlightAware ADS-B
07:05AM 51.5226 -0.4427 101° East 556 640 37,000  Level FlightAware ADS-B
07:05AM 51.5069 -0.3213 102° East 557 641 37,000  Level FlightAware ADS-B
07:06AM 51.4912 -0.1959 101° East 558 642 37,000  Level FlightAware ADS-B
07:06AM 51.4751 -0.0667 101° East 558 642 37,000  Level FlightAware ADS-B
07:07AM 51.4592 0.0552 102° East 558 642 37,000  Level FlightAware ADS-B
07:07AM 51.4432 0.1804 102° East 560 644 37,000  Level FlightAware ADS-B
07:08AM 51.4263 0.3101 102° East 560 644 37,000  Level FlightAware ADS-B
07:08AM 51.4053 0.4679 102° East 560 644 37,000  Level FlightAware ADS-B
07:09AM 51.3891 0.5890 102° East 559 643 37,000  Level FlightAware ADS-B
07:09AM 51.3722 0.7182 102° East 559 643 37,000  Level FlightAware ADS-B
07:10AM 51.3557 0.8394 102° East 559 643 37,000  Level FlightAware ADS-B
07:11AM 51.3386 0.9644 102° East 560 644 37,000  Level FlightAware ADS-B
07:11AM 51.3189 1.1100 102° East 561 646 37,000  Level FlightAware ADS-B
07:12AM 51.2917 1.3081 102° East 496 571 37,000  Level FlightAware UK
07:12AM 51.2910 1.3080 102° East 562 647 37,000  Level FlightAware
07:12AM 51.2706 1.4290 102° East 496 571 37,000  Level FlightAware UK
07:13AM 51.2680 1.4400 102° East 565 650 37,000  Level FlightAware
07:13AM 51.2350 1.5750 111° Southeast 567 652 37,000  Level FlightAware
07:14AM 51.1960 1.7080 115° Southeast 567 652 37,000  Level FlightAware
07:14AM 51.1580 1.8370 115° Southeast 567 652 37,000  Level FlightAware
07:15AM 51.1260 1.9460 115° Southeast 567 652 37,000  Level FlightAware
07:15AM 51.0760 2.1160 115° Southeast 568 654 37,000  Level FlightAware
07:16AM 51.0475 2.2144 115° Southeast 568 654 37,000  Level FlightAware ADS-B
07:16AM 51.0103 2.3410 115° Southeast 496 571 37,000  Level FlightAware UK
07:17AM 51.0010 2.3690 115° Southeast 568 654 37,000  Level FlightAware
07:17AM 50.9650 2.4890 115° Southeast 568 654 37,000  Level FlightAware
07:18AM 50.9210 2.6350 116° Southeast 568 654 37,000  Level FlightAware
07:18AM 50.8830 2.7580 116° Southeast 567 652 37,000  Level FlightAware
07:19AM 50.8430 2.8890 116° Southeast 568 654 37,000  Level FlightAware
07:19AM 50.8010 3.0230 116° Southeast 567 652 37,000  Level FlightAware
07:20AM 50.7630 3.1490 116° Southeast 566 651 37,000  Level FlightAware
07:20AM 50.7563 3.1710 116° Southeast 498 573 37,000  Level FlightAware UK
07:21AM 50.7221 3.2826 116° Southeast 496 571 37,000  Level FlightAware UK
07:21AM 50.7220 3.2790 116° Southeast 566 651 37,000  Level FlightAware
07:21AM 50.6840 3.4010 116° Southeast 566 651 37,000  Level FlightAware
07:21AM 50.6805 3.4157 116° Southeast 498 573 37,000  Level FlightAware UK
07:22AM 50.6388 3.5483 116° Southeast 498 573 37,000  Level FlightAware UK
07:22AM 50.6330 3.5630 116° Southeast 564 649 37,000  Level FlightAware
07:22AM 50.5960 3.6810 116° Southeast 563 648 37,000  Level FlightAware
07:23AM 50.5490 3.8270 117° Southeast 562 647 37,000  Level FlightAware
07:24AM 50.5100 3.9510 116° Southeast 562 647 37,000  Level FlightAware
07:24AM 50.4740 4.0600 117° Southeast 562 647 37,000  Level FlightAware
07:25AM 50.4280 4.2050 116° Southeast 561 646 37,000  Level FlightAware
07:25AM 50.3830 4.3430 117° Southeast 561 646 37,000  Level FlightAware
07:26AM 50.3410 4.4730 117° Southeast 561 646 37,000  Level FlightAware
07:27AM 50.3040 4.5850 117° Southeast 561 646 37,000  Level FlightAware
07:27AM 50.3012 4.5956 117° Southeast 1 1 37,000  Level FlightAware UK
07:27AM 50.2640 4.7070 117° Southeast 562 647 37,000  Level FlightAware
07:28AM 50.2230 4.8300 117° Southeast 562 647 37,000  Level FlightAware
07:28AM 50.1810 4.9560 117° Southeast 562 647 37,000  Level FlightAware
07:29AM 50.1400 5.0810 117° Southeast 562 647 37,000  Level FlightAware
07:30AM 50.0940 5.2170 118° Southeast 561 646 37,000  Level FlightAware
07:30AM 50.0550 5.3320 118° Southeast 562 647 37,000  Level FlightAware
07:31AM 50.0000 5.4920 118° Southeast 561 646 37,000  Level FlightAware
07:31AM 49.9580 5.6170 118° Southeast 562 647 37,000  Level FlightAware
07:32AM 49.9190 5.7310 118° Southeast 562 647 37,000  Level FlightAware
07:33AM 49.8700 5.8730 118° Southeast 562 647 37,000  Level FlightAware
07:33AM 49.8280 5.9930 118° Southeast 561 646 37,000  Level FlightAware
07:34AM 49.7900 6.1030 118° Southeast 562 647 37,000  Level FlightAware
07:34AM 49.7420 6.2400 118° Southeast 562 647 37,000  Level FlightAware
07:35AM 49.6940 6.3780 118° Southeast 562 647 37,000  Level FlightAware
07:36AM 49.6470 6.5080 119° Southeast 563 648 37,000  Level FlightAware
07:36AM 49.6020 6.6350 119° Southeast 563 648 37,000  Level FlightAware
07:37AM 49.5580 6.7610 118° Southeast 563 648 37,000  Level FlightAware
07:37AM 49.5120 6.8870 119° Southeast 563 648 37,000  Level FlightAware
07:38AM 49.4730 6.9960 119° Southeast 564 649 37,000  Level FlightAware
07:39AM 49.4300 7.1140 119° Southeast 563 648 37,000  Level FlightAware
07:39AM 49.3810 7.2500 119° Southeast 563 648 37,000  Level FlightAware
07:40AM 49.3400 7.3620 119° Southeast 562 647 37,000  Level FlightAware
07:40AM 49.2910 7.4930 120° Southeast 562 647 37,000  Level FlightAware
07:41AM 49.2470 7.6110 120° Southeast 562 647 37,000  Level FlightAware
07:41AM 49.2020 7.7360 119° Southeast 563 648 37,000  Level FlightAware
07:42AM 49.1690 7.8220 120° Southeast 563 648 37,000  Level FlightAware
07:42AM 49.1230 7.9460 120° Southeast 562 647 37,000  Level FlightAware
07:43AM 49.0800 8.0600 120° Southeast 563 648 37,000  Level FlightAware
07:44AM 49.0270 8.2010 120° Southeast 563 648 37,000  Level FlightAware
07:44AM 48.9860 8.3100 120° Southeast 565 650 37,000  Level FlightAware
07:45AM 48.9320 8.4280 125° Southeast 563 648 37,000  Level FlightAware
07:45AM 48.8810 8.5220 130° Southeast 559 643 37,000  Level FlightAware
07:46AM 48.8140 8.6250 135° Southeast 557 641 37,000  Level FlightAware
07:47AM 48.7550 8.7160 135° Southeast 555 639 37,000  Level FlightAware
07:47AM 48.6840 8.8230 135° Southeast 553 636 37,000  Level FlightAware
07:48AM 48.6130 8.9290 135° Southeast 552 635 37,000  Level FlightAware
07:48AM 48.5470 9.0270 135° Southeast 550 633 37,000  Level FlightAware
07:49AM 48.4880 9.1150 135° Southeast 545 627 37,000  Level FlightAware
07:50AM 48.4320 9.2000 135° Southeast 541 623 37,000  Level FlightAware
07:50AM 48.3640 9.3000 136° Southeast 524 603 37,000  Level FlightAware
07:51AM 48.3050 9.3870 136° Southeast 519 597 37,000  Level FlightAware
07:51AM 48.2340 9.4790 139° Southeast 521 600 37,000  Level FlightAware
07:52AM 48.1680 9.5540 143° Southeast 521 600 37,000  Level FlightAware
07:53AM 48.1000 9.6300 143° Southeast 521 600 37,000  Level FlightAware
07:53AM 48.0260 9.7070 145° Southeast 521 600 37,000  Level FlightAware
07:54AM 47.9680 9.7700 144° Southeast 522 601 37,000  Level FlightAware
07:54AM 47.8960 9.8440 145° Southeast 521 600 37,000  Level FlightAware
07:55AM 47.8200 9.9240 145° Southeast 517 595 37,000  Level FlightAware
07:55AM 47.7510 9.9960 145° Southeast 515 593 37,000  Level FlightAware
07:56AM 47.6650 10.0870 145° Southeast 512 589 37,000  Level FlightAware
07:57AM 47.5940 10.1590 146° Southeast 511 588 37,000  Level FlightAware
07:57AM 47.5370 10.2190 145° Southeast 510 587 37,000  Level FlightAware
07:58AM 47.4510 10.3060 146° Southeast 509 586 37,000  Level FlightAware
07:59AM 47.3620 10.3980 145° Southeast 508 585 37,000  Level FlightAware
07:59AM 47.3050 10.4570 145° Southeast 509 586 37,000  Level FlightAware
08:00AM 47.2340 10.5280 146° Southeast 511 588 37,000  Level FlightAware
08:01AM 47.1580 10.6130 143° Southeast 511 588 37,000  Level FlightAware
08:01AM 47.1110 10.6780 137° Southeast 518 596 37,000  Level FlightAware
08:02AM 47.0470 10.7760 134° Southeast 520 598 37,000  Level FlightAware
08:02AM 46.9880 10.8690 133° Southeast 520 598 37,000  Level FlightAware
08:03AM 46.9330 10.9540 133° Southeast 524 603 37,000  Level FlightAware
08:03AM 46.8690 11.0520 134° Southeast 523 602 37,000  Level FlightAware
08:04AM 46.8080 11.1460 133° Southeast 522 601 37,000  Level FlightAware
08:05AM 46.7470 11.2380 134° Southeast 521 600 37,000  Level FlightAware
08:05AM 46.6910 11.3240 133° Southeast 519 597 37,000  Level FlightAware
08:06AM 46.6360 11.4070 134° Southeast 519 597 37,000  Level FlightAware
08:06AM 46.5800 11.4900 134° Southeast 518 596 37,000  Level FlightAware
08:07AM 46.5200 11.5790 134° Southeast 517 595 37,000  Level FlightAware
08:08AM 46.4590 11.6720 134° Southeast 520 598 37,000  Level FlightAware
08:08AM 46.3970 11.7650 134° Southeast 523 602 37,000  Level FlightAware
08:09AM 46.3450 11.8430 134° Southeast 524 603 37,000  Level FlightAware
08:09AM 46.2760 11.9460 134° Southeast 527 606 37,000  Level FlightAware
08:10AM 46.2210 12.0270 134° Southeast 529 609 37,000  Level FlightAware
08:11AM 46.1600 12.1150 135° Southeast 531 611 37,000  Level FlightAware
08:11AM 46.1100 12.1880 135° Southeast 532 612 37,000  Level FlightAware
08:12AM 46.0390 12.2920 135° Southeast 530 610 37,000  Level FlightAware
08:12AM 45.9840 12.3740 134° Southeast 529 609 37,000  Level FlightAware
08:13AM 45.9240 12.4620 134° Southeast 531 611 37,000  Level FlightAware
08:13AM 45.8580 12.5570 135° Southeast 530 610 37,000  Level FlightAware
08:14AM 45.7990 12.6420 135° Southeast 530 610 37,000  Level FlightAware
08:15AM 45.7260 12.7460 135° Southeast 528 608 37,000  Level FlightAware
08:15AM 45.6650 12.8330 135° Southeast 528 608 37,000  Level FlightAware
08:16AM 45.6140 12.9070 135° Southeast 527 606 37,000  Level FlightAware
08:17AM 45.5350 13.0190 135° Southeast 526 605 37,000  Level FlightAware
08:17AM 45.4810 13.0990 134° Southeast 527 606 37,000  Level FlightAware
08:18AM 45.4260 13.2060 126° Southeast 533 613 37,000  Level FlightAware
08:18AM 45.3800 13.2970 126° Southeast 532 612 37,000  Level FlightAware
08:19AM 45.3310 13.3930 126° Southeast 530 610 37,000  Level FlightAware
08:20AM 45.2700 13.5090 127° Southeast 529 609 37,000  Level FlightAware
08:20AM 45.2260 13.5890 128° Southeast 528 608 37,000  Level FlightAware
08:21AM 45.1680 13.6960 128° Southeast 526 605 37,000  Level FlightAware
08:21AM 45.1200 13.7830 128° Southeast 525 604 37,000  Level FlightAware
08:22AM 45.0700 13.8750 128° Southeast 525 604 37,000  Level FlightAware
08:22AM 45.0160 13.9730 128° Southeast 523 602 37,000  Level FlightAware
08:23AM 44.9650 14.0670 127° Southeast 522 601 37,000  Level FlightAware
08:24AM 44.9120 14.1680 127° Southeast 520 598 37,000  Level FlightAware
08:24AM 44.8650 14.2570 127° Southeast 519 597 37,000  Level FlightAware
08:25AM 44.8150 14.3490 127° Southeast 517 595 37,000  Level FlightAware
08:25AM 44.7640 14.4420 128° Southeast 510 587 37,000  Level FlightAware
08:26AM 44.7130 14.5380 127° Southeast 510 587 37,000  Level FlightAware
08:27AM 44.6580 14.6390 127° Southeast 511 588 37,000  Level FlightAware
08:27AM 44.6130 14.7220 127° Southeast 512 589 37,000  Level FlightAware
08:28AM 44.5630 14.8120 128° Southeast 513 590 37,000  Level FlightAware
08:28AM 44.5070 14.9160 127° Southeast 515 593 37,000  Level FlightAware
08:29AM 44.4380 15.0420 127° Southeast 515 593 37,000  Level FlightAware
08:30AM 44.3940 15.1220 128° Southeast 517 595 37,000  Level FlightAware
08:30AM 44.3440 15.2330 122° Southeast 519 597 37,000  Level FlightAware
08:31AM 44.3010 15.3240 123° Southeast 520 598 37,000  Level FlightAware
08:31AM 44.2520 15.4330 122° Southeast 523 602 37,000  Level FlightAware
08:32AM 44.2010 15.5470 122° Southeast 523 602 37,000  Level FlightAware
08:33AM 44.1620 15.6320 123° Southeast 522 601 37,000  Level FlightAware
08:33AM 44.1110 15.7480 121° Southeast 521 600 37,000  Level FlightAware
08:34AM 44.0750 15.8280 122° Southeast 519 597 37,000  Level FlightAware
08:34AM 44.0210 15.9430 123° Southeast 518 596 37,000  Level FlightAware
08:35AM 43.9770 16.0410 122° Southeast 517 595 37,000  Level FlightAware
08:35AM 43.9390 16.1250 122° Southeast 516 594 37,000  Level FlightAware
08:36AM 43.8940 16.2230 122° Southeast 515 593 37,000  Level FlightAware
08:37AM 43.8420 16.3370 122° Southeast 515 593 37,000  Level FlightAware
08:37AM 43.8060 16.4150 123° Southeast 511 588 37,000  Level FlightAware
08:38AM 43.7570 16.5120 125° Southeast 507 583 37,000  Level FlightAware
08:38AM 43.6960 16.6110 130° Southeast 502 578 37,000  Level FlightAware
08:39AM 43.6460 16.6840 133° Southeast 501 577 37,000  Level FlightAware
08:40AM 43.5910 16.7640 133° Southeast 501 577 37,000  Level FlightAware
08:40AM 43.5270 16.8590 133° Southeast 504 580 37,000  Level FlightAware
08:41AM 43.4800 16.9300 132° Southeast 503 579 37,000  Level FlightAware
08:41AM 43.4300 17.0050 133° Southeast 502 578 37,000  Level FlightAware
08:42AM 43.3590 17.1110 133° Southeast 501 577 37,000  Level FlightAware
08:42AM 43.3080 17.1850 133° Southeast 501 577 37,000  Level FlightAware
08:43AM 43.2540 17.2640 133° Southeast 502 578 37,000  Level FlightAware
08:44AM 43.2020 17.3410 133° Southeast 503 579 37,000  Level FlightAware
08:44AM 43.1410 17.4320 133° Southeast 503 579 37,000  Level FlightAware
08:45AM 43.0840 17.5160 133° Southeast 503 579 37,000  Level FlightAware
08:45AM 43.0270 17.5970 134° Southeast 503 579 37,000  Level FlightAware
08:46AM 42.9700 17.6800 133° Southeast 503 579 37,000  Level FlightAware
08:47AM 42.9180 17.7560 133° Southeast 502 578 37,000  Level FlightAware
08:47AM 42.8590 17.8390 134° Southeast 504 580 37,000  Level FlightAware
08:48AM 42.8060 17.9160 133° Southeast 505 581 37,000  Level FlightAware
08:48AM 42.7520 17.9940 133° Southeast 505 581 37,000  Level FlightAware
08:49AM 42.6900 18.0830 133° Southeast 504 580 37,000  Level FlightAware
08:49AM 42.6420 18.1500 134° Southeast 504 580 37,000  Level FlightAware
08:50AM 42.5820 18.2370 133° Southeast 503 579 37,000  Level FlightAware
08:51AM 42.5320 18.3080 134° Southeast 504 580 37,000  Level FlightAware
08:51AM 42.4660 18.3960 135° Southeast 504 580 37,000  Level FlightAware
08:52AM 42.4150 18.4630 136° Southeast 504 580 37,000  Level FlightAware
08:52AM 42.3580 18.5410 135° Southeast 504 580 37,000  Level FlightAware
08:53AM 42.2930 18.6270 136° Southeast 504 580 37,000  Level FlightAware
08:54AM 42.2310 18.7110 135° Southeast 504 580 37,000  Level FlightAware
08:54AM 42.1790 18.7800 135° Southeast 504 580 37,000  Level FlightAware
08:55AM 42.1220 18.8570 135° Southeast 504 580 37,000  Level FlightAware
08:55AM 42.0700 18.9250 136° Southeast 503 579 37,000  Level FlightAware
08:56AM 42.0100 19.0050 135° Southeast 502 578 37,000  Level FlightAware
08:56AM 41.9430 19.0920 136° Southeast 502 578 37,000  Level FlightAware
08:57AM 41.8850 19.1710 135° Southeast 502 578 37,000  Level FlightAware
08:58AM 41.8130 19.2650 136° Southeast 502 578 37,000  Level FlightAware
08:58AM 41.7520 19.3400 137° Southeast 501 577 37,000  Level FlightAware
08:59AM 41.7040 19.3950 139° Southeast 501 577 37,000  Level FlightAware
09:00AM 41.6320 19.4770 140° Southeast 501 577 37,000  Level FlightAware
09:00AM 41.5670 19.5480 141° Southeast 501 577 37,000  Level FlightAware
09:01AM 41.5110 19.6120 139° Southeast 501 577 37,000  Level FlightAware
09:01AM 41.4470 19.6840 140° Southeast 500 575 37,000  Level FlightAware
09:02AM 41.3840 19.7590 138° Southeast 502 578 37,000  Level FlightAware
09:02AM 41.3350 19.8270 134° Southeast 503 579 37,000  Level FlightAware
09:03AM 41.2690 19.9150 135° Southeast 503 579 37,000  Level FlightAware
09:04AM 41.2140 19.9900 134° Southeast 503 579 37,000  Level FlightAware
09:04AM 41.1590 20.0630 135° Southeast 503 579 37,000  Level FlightAware
09:05AM 41.1000 20.1410 135° Southeast 502 578 37,000  Level FlightAware
09:05AM 41.0420 20.2180 135° Southeast 502 578 37,000  Level FlightAware
09:06AM 40.9910 20.2880 134° Southeast 502 578 37,000  Level FlightAware
09:06AM 40.9360 20.3610 135° Southeast 501 577 37,000  Level FlightAware
09:07AM 40.8700 20.4460 136° Southeast 502 578 37,000  Level FlightAware
09:08AM 40.8120 20.5240 134° Southeast 501 577 37,000  Level FlightAware
09:08AM 40.7590 20.5930 135° Southeast 501 577 37,000  Level FlightAware
09:09AM 40.7000 20.6700 135° Southeast 500 575 37,000  Level FlightAware
09:09AM 40.6400 20.7470 136° Southeast 499 574 37,000  Level FlightAware
09:10AM 40.5850 20.8200 135° Southeast 498 573 37,000  Level FlightAware
09:11AM 40.5300 20.8900 136° Southeast 498 573 37,000  Level FlightAware
09:11AM 40.4690 20.9680 136° Southeast 498 573 37,000  Level FlightAware
09:12AM 40.4310 21.0120 139° Southeast 497 572 37,000  Level FlightAware
09:12AM 40.3500 21.1060 138° Southeast 498 573 37,000  Level FlightAware
09:13AM 40.2880 21.1770 139° Southeast 497 572 37,000  Level FlightAware
09:14AM 40.2250 21.2510 138° Southeast 497 572 37,000  Level FlightAware
09:14AM 40.1620 21.3220 139° Southeast 498 573 37,000  Level FlightAware
09:15AM 40.1080 21.3840 139° Southeast 499 574 37,000  Level FlightAware
09:15AM 40.0440 21.4570 139° Southeast 500 575 37,000  Level FlightAware
09:16AM 39.9810 21.5280 139° Southeast 501 577 37,000  Level FlightAware
09:16AM 39.9170 21.6000 139° Southeast 501 577 37,000  Level FlightAware
09:17AM 39.8630 21.6610 139° Southeast 501 577 37,000  Level FlightAware
09:18AM 39.8020 21.7300 139° Southeast 501 577 37,000  Level FlightAware
09:18AM 39.7340 21.8050 140° Southeast 500 575 37,000  Level FlightAware
09:19AM 39.6800 21.8660 139° Southeast 500 575 37,000  Level FlightAware
09:19AM 39.6170 21.9360 139° Southeast 499 574 37,000  Level FlightAware
09:20AM 39.5530 22.0090 139° Southeast 500 575 37,000  Level FlightAware
09:21AM 39.4900 22.0790 139° Southeast 499 574 37,000  Level FlightAware
09:21AM 39.4310 22.1430 140° Southeast 499 574 37,000  Level FlightAware
09:22AM 39.3750 22.2050 139° Southeast 499 574 37,000  Level FlightAware
09:22AM 39.3040 22.2850 139° Southeast 498 573 37,000  Level FlightAware
09:23AM 39.2470 22.3460 140° Southeast 498 573 37,000  Level FlightAware
09:23AM 39.1840 22.4160 139° Southeast 498 573 37,000  Level FlightAware
09:24AM 39.1220 22.4830 140° Southeast 497 572 37,000  Level FlightAware
09:25AM 39.0670 22.5440 139° Southeast 496 571 37,000  Level FlightAware
09:25AM 39.0020 22.6150 140° Southeast 495 570 37,000  Level FlightAware
09:26AM 38.9440 22.6780 140° Southeast 495 570 37,000  Level FlightAware
09:26AM 38.8660 22.7640 139° Southeast 495 570 37,000  Level FlightAware
09:27AM 38.8030 22.8320 140° Southeast 496 571 37,000  Level FlightAware
09:28AM 38.7400 22.9000 140° Southeast 496 571 37,000  Level FlightAware
09:28AM 38.6840 22.9610 140° Southeast 497 572 37,000  Level FlightAware
09:29AM 38.6240 23.0250 140° Southeast 498 573 37,000  Level FlightAware
09:29AM 38.5530 23.1010 140° Southeast 499 574 37,000  Level FlightAware
09:30AM 38.4980 23.1600 140° Southeast 500 575 37,000  Level FlightAware
09:31AM 38.4320 23.2300 140° Southeast 501 577 37,000  Level FlightAware
09:31AM 38.3680 23.2980 140° Southeast 501 577 37,000  Level FlightAware
09:32AM 38.3050 23.3650 140° Southeast 502 578 37,000  Level FlightAware
09:32AM 38.2470 23.4270 140° Southeast 503 579 37,000  Level FlightAware
09:33AM 38.1920 23.4840 141° Southeast 503 579 37,000  Level FlightAware
09:33AM 38.1180 23.5640 140° Southeast 502 578 37,000  Level FlightAware
09:34AM 38.0580 23.6260 141° Southeast 502 578 37,000  Level FlightAware
09:35AM 37.9960 23.6920 140° Southeast 502 578 37,000  Level FlightAware
09:35AM 37.9400 23.7520 140° Southeast 502 578 37,000  Level FlightAware
09:36AM 37.8740 23.8280 138° Southeast 507 583 37,000  Level FlightAware
09:36AM 37.8160 23.9120 131° Southeast 511 588 37,000  Level FlightAware
09:37AM 37.7680 23.9840 130° Southeast 510 587 37,000  Level FlightAware
09:38AM 37.7130 24.0670 130° Southeast 509 586 37,000  Level FlightAware
09:38AM 37.6570 24.1510 130° Southeast 511 588 37,000  Level FlightAware
09:39AM 37.6030 24.2300 131° Southeast 512 589 37,000  Level FlightAware
09:39AM 37.5520 24.3120 128° Southeast 515 593 37,000  Level FlightAware
09:40AM 37.4990 24.4130 123° Southeast 518 596 37,000  Level FlightAware
09:41AM 37.4540 24.5030 122° Southeast 519 597 37,000  Level FlightAware
09:41AM 37.4100 24.5920 122° Southeast 518 596 37,000  Level FlightAware
09:42AM 37.3650 24.6810 122° Southeast 519 597 37,000  Level FlightAware
09:42AM 37.3220 24.7650 123° Southeast 520 598 37,000  Level FlightAware
09:43AM 37.2760 24.8570 122° Southeast 521 600 37,000  Level FlightAware
09:43AM 37.2340 24.9410 122° Southeast 522 601 37,000  Level FlightAware
09:44AM 37.1820 25.0410 123° Southeast 522 601 37,000  Level FlightAware
09:45AM 37.1400 25.1230 123° Southeast 524 603 37,000  Level FlightAware
09:45AM 37.0900 25.2230 122° Southeast 525 604 37,000  Level FlightAware
09:46AM 37.0460 25.3100 122° Southeast 527 606 37,000  Level FlightAware
09:46AM 37.0010 25.4040 121° Southeast 528 608 37,000  Level FlightAware
09:47AM 36.9600 25.4870 122° Southeast 528 608 37,000  Level FlightAware
09:48AM 36.9150 25.5760 122° Southeast 527 606 37,000  Level FlightAware
09:48AM 36.8710 25.6670 121° Southeast 527 606 37,000  Level FlightAware
09:49AM 36.8240 25.7620 122° Southeast 527 606 37,000  Level FlightAware
09:49AM 36.7740 25.8600 122° Southeast 526 605 37,000  Level FlightAware
09:50AM 36.7340 25.9430 121° Southeast 525 604 37,000  Level FlightAware
09:51AM 36.6860 26.0380 122° Southeast 524 603 37,000  Level FlightAware
09:51AM 36.6450 26.1190 122° Southeast 522 601 37,000  Level FlightAware
09:52AM 36.5980 26.2140 122° Southeast 522 601 37,000  Level FlightAware
09:52AM 36.5590 26.2900 123° Southeast 523 602 37,000  Level FlightAware
09:53AM 36.5180 26.3710 122° Southeast 523 602 37,000  Level FlightAware
09:53AM 36.4720 26.4630 122° Southeast 524 603 37,000  Level FlightAware
09:54AM 36.4280 26.5500 122° Southeast 524 603 37,000  Level FlightAware
09:54AM 36.3810 26.6410 123° Southeast 524 603 37,000  Level FlightAware
09:55AM 36.3350 26.7330 122° Southeast 522 601 37,000  Level FlightAware
09:56AM 36.2930 26.8130 123° Southeast 521 600 37,000  Level FlightAware
09:56AM 36.2480 26.9020 122° Southeast 521 600 37,000  Level FlightAware
09:57AM 36.1890 27.0150 123° Southeast 521 600 37,000  Level FlightAware
09:57AM 36.1470 27.0980 122° Southeast 520 598 37,000  Level FlightAware
09:58AM 36.1070 27.1760 122° Southeast 520 598 37,000  Level FlightAware
09:59AM 36.0580 27.2710 123° Southeast 519 597 37,000  Level FlightAware
09:59AM 35.9980 27.3860 123° Southeast 519 597 37,000  Level FlightAware
10:00AM 35.9410 27.4950 123° Southeast 519 597 37,000  Level FlightAware
10:01AM 35.9020 27.5720 122° Southeast 519 597 37,000  Level FlightAware
10:01AM 35.8630 27.6490 122° Southeast 519 597 37,000  Level FlightAware
10:02AM 35.8250 27.7260 121° Southeast 519 597 37,000  Level FlightAware
10:03AM 35.7830 27.8070 123° Southeast 519 597 37,000  Level FlightAware
10:03AM 35.7450 27.8830 122° Southeast 519 597 37,000  Level FlightAware
10:04AM 35.6460 28.0550 125° Southeast 522 601 37,000  Level FlightAware
10:05AM 35.5960 28.1500 123° Southeast 522 601 37,000  Level FlightAware
10:05AM 35.5530 28.2290 124° Southeast 523 602 37,000  Level FlightAware
10:06AM 35.5030 28.3210 124° Southeast 522 601 37,000  Level FlightAware
10:06AM 35.4600 28.4030 123° Southeast 522 601 37,000  Level FlightAware
10:07AM 35.4190 28.4790 123° Southeast 522 601 37,000  Level FlightAware
10:08AM 35.3570 28.5960 123° Southeast 521 600 37,000  Level FlightAware
10:08AM 35.3050 28.6910 124° Southeast 521 600 37,000  Level FlightAware
10:09AM 35.2570 28.7770 124° Southeast 521 600 37,000  Level FlightAware
10:09AM 35.2100 28.8660 123° Southeast 520 598 37,000  Level FlightAware
10:10AM 35.1510 28.9760 123° Southeast 520 598 37,000  Level FlightAware
10:11AM 35.0770 29.1110 124° Southeast 520 598 37,000  Level FlightAware
10:12AM 35.0340 29.1880 124° Southeast 520 598 37,000  Level FlightAware
10:13AM 34.9600 29.3220 124° Southeast 518 596 37,000  Level FlightAware
10:13AM 34.9200 29.3970 123° Southeast 518 596 37,000  Level FlightAware
10:14AM 34.8600 29.5030 125° Southeast 519 597 37,000  Level FlightAware
10:14AM 34.8060 29.6000 124° Southeast 521 600 37,000  Level FlightAware
10:15AM 34.7620 29.6800 124° Southeast 521 600 37,000  Level FlightAware
10:15AM 34.7190 29.7580 124° Southeast 521 600 37,000  Level FlightAware
10:16AM 34.6630 29.8580 124° Southeast 522 601 37,000  Level FlightAware
10:17AM 34.6220 29.9300 125° Southeast 522 601 37,000  Level FlightAware
10:17AM 34.5760 30.0130 124° Southeast 522 601 37,000  Level FlightAware
10:18AM 34.5290 30.1120 120° Southeast 524 603 37,000  Level FlightAware
10:19AM 34.4850 30.2060 120° Southeast 523 602 37,000  Level FlightAware
10:19AM 34.4420 30.2950 120° Southeast 524 603 37,000  Level FlightAware
10:20AM 34.4040 30.3740 120° Southeast 523 602 37,000  Level FlightAware
10:20AM 34.3570 30.4730 120° Southeast 519 597 37,000  Level FlightAware
10:21AM 34.3140 30.5630 120° Southeast 520 598 37,000  Level FlightAware
10:22AM 34.2680 30.6570 121° Southeast 520 598 37,000  Level FlightAware
10:22AM 34.2200 30.7560 120° Southeast 520 598 37,000  Level FlightAware
10:23AM 34.1720 30.8540 121° Southeast 520 598 37,000  Level FlightAware
10:23AM 34.1220 30.9570 120° Southeast 520 598 37,000  Level FlightAware
10:24AM 34.0860 31.0300 121° Southeast 519 597 37,000  Level FlightAware
10:25AM 34.0430 31.1180 121° Southeast 517 595 37,000  Level FlightAware
10:25AM 33.9930 31.2200 121° Southeast 515 593 37,000  Level FlightAware
10:26AM 33.9550 31.2970 121° Southeast 514 592 37,000  Level FlightAware
10:26AM 33.9130 31.3810 121° Southeast 512 589 37,000  Level FlightAware
10:27AM 33.8700 31.4680 121° Southeast 512 589 37,000  Level FlightAware
10:27AM 33.8260 31.5560 121° Southeast 511 588 37,000  Level FlightAware
10:28AM 33.7830 31.6420 121° Southeast 510 587 37,000 -180 Level FlightAware
10:29AM 33.7420 31.7260 120° Southeast 510 587 36,800 -1,920 Descending FlightAware
10:29AM 33.6930 31.8240 121° Southeast 515 593 34,700 -2,820 Descending FlightAware
10:30AM 33.6500 31.9090 121° Southeast 530 610 33,300 -1,920 Descending FlightAware
10:30AM 33.6050 31.9990 121° Southeast 526 605 32,500 -1,380 Descending FlightAware
10:31AM 33.5560 32.0970 121° Southeast 527 606 31,600 -1,320 Descending FlightAware
10:32AM 33.5150 32.1770 122° Southeast 532 612 31,000 -600 Descending FlightAware
10:32AM 33.4710 32.2650 121° Southeast 530 610 31,000  Level FlightAware
10:33AM 33.4270 32.3530 121° Southeast 529 609 31,000  Level FlightAware
10:33AM 33.3830 32.4380 122° Southeast 528 608 31,000  Level FlightAware
10:34AM 33.3370 32.5280 121° Southeast 528 608 31,000  Level FlightAware
10:35AM 33.2800 32.6400 121° Southeast 528 608 31,000  Level FlightAware
10:35AM 33.2430 32.7120 122° Southeast 527 606 31,000  Level FlightAware
10:36AM 33.2010 32.7940 121° Southeast 527 606 31,000  Level FlightAware
10:36AM 33.1480 32.8980 121° Southeast 525 604 31,000  Level FlightAware
10:37AM 33.1170 32.9570 122° Southeast 526 605 31,000  Level FlightAware
10:38AM 33.0600 33.0650 122° Southeast 523 602 31,000  Level FlightAware
10:38AM 33.0170 33.1490 121° Southeast 523 602 31,000  Level FlightAware
10:39AM 32.9690 33.2400 122° Southeast 524 603 31,000 -1,980 Level FlightAware
10:40AM 32.9110 33.3530 121° Southeast 540 621 28,300 -4,620 Descending FlightAware
10:40AM 32.8630 33.4450 122° Southeast 547 629 25,200 -4,080 Descending FlightAware
10:41AM 32.8210 33.5250 122° Southeast 525 604 23,700 -1,860 Descending FlightAware
10:42AM 32.7620 33.6400 121° Southeast 504 580 22,600 -2,760 Descending FlightAware
10:42AM 32.7170 33.7240 122° Southeast 473 544 19,800 -4,020 Descending FlightAware
10:43AM 32.6800 33.7930 122° Southeast 461 531 18,200 -2,400 Descending FlightAware
10:43AM 32.6410 33.8670 122° Southeast 429 494 17,100 -2,220 Descending FlightAware
10:44AM 32.6020 33.9400 122° Southeast 393 452 15,500 -3,120 Descending FlightAware
10:44AM 32.5710 33.9980 122° Southeast 390 449 13,500 -3,240 Descending FlightAware
10:45AM 32.5410 34.0560 122° Southeast 372 428 11,900 -2,340 Descending FlightAware
10:46AM 32.5080 34.1170 123° Southeast 341 392 10,800 -1,380 Descending FlightAware
10:46AM 32.4770 34.1690 125° Southeast 308 354 10,300 -900 Descending FlightAware
10:47AM 32.4510 34.2010 134° Southeast 294 338 9,900 -900 Descending FlightAware
10:47AM 32.4330 34.2220 135° Southeast 289 333 9,600 -1,320 Descending FlightAware
10:47AM 32.4140 34.2450 134° Southeast 287 330 9,100 -1,380 Descending FlightAware
10:48AM 32.3750 34.2910 135° Southeast 282 325 8,200 -1,260 Descending FlightAware
10:48AM 32.3520 34.3180 135° Southeast 281 323 7,700 -1,380 Descending FlightAware
10:49AM 32.3330 34.3390 137° Southeast 279 321 7,200 -660 Descending FlightAware
10:49AM 32.3110 34.3650 135° Southeast 279 321 7,200  Level FlightAware
10:52AM 32.0919 34.6857 125° Southeast  Level FlightAware Approximate
10:53AM 32.0171 34.8381 125° Southeast  Level FlightAware Approximate
10:54AM 32.0000 34.8667 125° Southeast  Level FlightAware Approximate
10:55AM 32.0095 34.8769 125° Southeast  Level Estimated
10:56AM 32.0095 34.8769 125° Southeast  Level Estimated
10:57AM 32.0095 34.8769 125° Southeast  Level Estimated
10:58AM 32.0095 34.8769 125° Southeast  Level Estimated
10:59AM 32.0095 34.8769 125° Southeast  Level Estimated
11:00AM 32.0095 34.8769 125° Southeast  Level Estimated
11:01AM 32.0095 34.8769 125° Southeast  Level Estimated
11:02AM 32.0095 34.8769 125° Southeast  Level Estimated
11:03AM 32.0095 34.8769 125° Southeast  Level Estimated
11:04AM 32.0095 34.8769 125° Southeast  Level Estimated
11:05AM 32.0095 34.8769 125° Southeast  Level Estimated
11:06AM 32.0095 34.8769 125° Southeast  Level Estimated